Weather at Saedinenie Airstrip [CLOSED]

Public forecast

Using degrees Celsius for public forecast. Weather courtesy of forecast.io.

Closest aviation weather report (METAR) to Saedinenie Airstrip

Closest report is Graf Ignatievo Air Base, 7.0 nm (13.0 km) E.

2024/06/13 09:00 (retrieved 40 minutes ago)

LBPG 130900Z 06004KT 9999 FEW100 BKN200 27/17 Q1014

Closest aviation forecast (TAF) to Saedinenie Airstrip

Closest forecast is Plovdiv International Airport, 19.0 nm (35.2 km) SE.

2024/06/13 06:18 (retrieved 3 hours ago)

TAF LBPD 130500Z 1306/1406 VRB04KT 9999 SCT070 BECMG 1307/1309 10010KT TEMPO 1309/1312 5000 TSRA FEW030CB BKN060 TEMPO 1313/1318 VRB16G30KT 2000 +TSRA SCT025CB OVC050 PROB40 TEMPO 1319/1324 5000 TSRA FEW030CB BKN060 BECMG 1400/1402 30014KT